sensor_id;sensor_type;location;lat;lon;timestamp;temperature;humidity
29713;DHT22;16623;53.632;10.016;2023-03-11T00:01:29;0.80;99.90
29713;DHT22;16623;53.632;10.016;2023-03-11T00:03:55;0.90;99.90
29713;DHT22;16623;53.632;10.016;2023-03-11T00:06:20;0.80;99.90
29713;DHT22;16623;53.632;10.016;2023-03-11T00:08:46;0.80;99.90
29713;DHT22;16623;53.632;10.016;2023-03-11T00:11:11;0.80;99.90
29713;DHT22;16623;53.632;10.016;2023-03-11T00:13:37;0.80;99.90
29713;DHT22;16623;53.632;10.016;2023-03-11T00:16:03;0.80;99.90
29713;DHT22;16623;53.632;10.016;2023-03-11T00:18:29;0.90;99.90
29713;DHT22;16623;53.632;10.016;2023-03-11T00:20:57;0.80;99.90
29713;DHT22;16623;53.632;10.016;2023-03-11T00:23:24;0.80;99.90
29713;DHT22;16623;53.632;10.016;2023-03-11T00:25:50;0.80;99.90
29713;DHT22;16623;53.632;10.016;2023-03-11T00:28:17;0.80;99.90
29713;DHT22;16623;53.632;10.016;2023-03-11T00:30:44;0.80;99.90
29713;DHT22;16623;53.632;10.016;2023-03-11T00:33:11;0.90;99.90
29713;DHT22;16623;53.632;10.016;2023-03-11T00:35:37;0.80;99.90
29713;DHT22;16623;53.632;10.016;2023-03-11T00:38:05;0.80;99.90
29713;DHT22;16623;53.632;10.016;2023-03-11T00:40:32;0.90;99.90
29713;DHT22;16623;53.632;10.016;2023-03-11T00:42:59;0.90;99.90
29713;DHT22;16623;53.632;10.016;2023-03-11T00:45:25;0.90;99.90
29713;DHT22;16623;53.632;10.016;2023-03-11T00:47:51;0.80;99.90
29713;DHT22;16623;53.632;10.016;2023-03-11T00:50:20;0.80;99.90
29713;DHT22;16623;53.632;10.016;2023-03-11T00:52:47;0.90;99.90
29713;DHT22;16623;53.632;10.016;2023-03-11T00:55:18;0.90;99.90
29713;DHT22;16623;53.632;10.016;2023-03-11T00:57:44;0.90;99.90
29713;DHT22;16623;53.632;10.016;2023-03-11T01:00:19;0.90;99.90
29713;DHT22;16623;53.632;10.016;2023-03-11T01:02:45;0.90;99.90
29713;DHT22;16623;53.632;10.016;2023-03-11T01:05:12;0.80;99.90
29713;DHT22;16623;53.632;10.016;2023-03-11T01:07:38;0.90;99.90
29713;DHT22;16623;53.632;10.016;2023-03-11T01:10:06;0.80;99.90
29713;DHT22;16623;53.632;10.016;2023-03-11T01:12:32;0.90;99.90
29713;DHT22;16623;53.632;10.016;2023-03-11T01:14:57;0.90;99.90
29713;DHT22;16623;53.632;10.016;2023-03-11T01:17:23;1.00;99.90
29713;DHT22;16623;53.632;10.016;2023-03-11T01:19:48;0.90;99.90
29713;DHT22;16623;53.632;10.016;2023-03-11T01:22:14;0.90;99.90
29713;DHT22;16623;53.632;10.016;2023-03-11T01:24:40;0.90;99.90
29713;DHT22;16623;53.632;10.016;2023-03-11T01:27:06;0.90;99.90
29713;DHT22;16623;53.632;10.016;2023-03-11T01:29:31;0.90;99.90
29713;DHT22;16623;53.632;10.016;2023-03-11T01:31:57;0.90;99.90
29713;DHT22;16623;53.632;10.016;2023-03-11T01:34:23;0.90;99.90
29713;DHT22;16623;53.632;10.016;2023-03-11T01:36:49;0.90;99.90
29713;DHT22;16623;53.632;10.016;2023-03-11T01:39:14;1.00;99.90
29713;DHT22;16623;53.632;10.016;2023-03-11T01:41:39;0.20;99.90
29713;DHT22;16623;53.632;10.016;2023-03-11T01:44:05;0.90;99.90
29713;DHT22;16623;53.632;10.016;2023-03-11T01:46:38;0.90;99.90
29713;DHT22;16623;53.632;10.016;2023-03-11T01:49:24;0.90;99.90
29713;DHT22;16623;53.632;10.016;2023-03-11T01:51:53;1.00;99.90
29713;DHT22;16623;53.632;10.016;2023-03-11T01:56:46;0.80;99.90
29713;DHT22;16623;53.632;10.016;2023-03-11T01:59:17;0.80;99.90
29713;DHT22;16623;53.632;10.016;2023-03-11T02:02:01;0.90;99.90
29713;DHT22;16623;53.632;10.016;2023-03-11T02:04:28;0.80;99.90
29713;DHT22;16623;53.632;10.016;2023-03-11T02:06:55;0.70;99.90
29713;DHT22;16623;53.632;10.016;2023-03-11T02:09:21;0.70;99.90
29713;DHT22;16623;53.632;10.016;2023-03-11T02:11:49;0.70;99.90
29713;DHT22;16623;53.632;10.016;2023-03-11T02:14:14;0.80;99.90
29713;DHT22;16623;53.632;10.016;2023-03-11T02:16:40;0.80;99.90
29713;DHT22;16623;53.632;10.016;2023-03-11T02:19:37;0.80;99.90
29713;DHT22;16623;53.632;10.016;2023-03-11T02:22:07;0.70;99.90
29713;DHT22;16623;53.632;10.016;2023-03-11T02:24:58;0.70;99.90
29713;DHT22;16623;53.632;10.016;2023-03-11T02:27:26;0.70;99.90
29713;DHT22;16623;53.632;10.016;2023-03-11T02:29:53;-0.10;99.90
29713;DHT22;16623;53.632;10.016;2023-03-11T02:32:21;0.70;99.90
29713;DHT22;16623;53.632;10.016;2023-03-11T02:34:47;0.70;99.90
29713;DHT22;16623;53.632;10.016;2023-03-11T02:37:14;0.70;99.90
29713;DHT22;16623;53.632;10.016;2023-03-11T02:39:43;0.80;99.90
29713;DHT22;16623;53.632;10.016;2023-03-11T02:42:28;0.70;99.90
29713;DHT22;16623;53.632;10.016;2023-03-11T02:45:03;0.80;99.90
29713;DHT22;16623;53.632;10.016;2023-03-11T02:47:30;0.70;99.90
29713;DHT22;16623;53.632;10.016;2023-03-11T02:49:56;0.70;99.90
29713;DHT22;16623;53.632;10.016;2023-03-11T02:52:24;0.50;99.90
29713;DHT22;16623;53.632;10.016;2023-03-11T02:54:50;0.60;99.90
29713;DHT22;16623;53.632;10.016;2023-03-11T02:57:15;0.70;99.90
29713;DHT22;16623;53.632;10.016;2023-03-11T02:59:41;-1.40;99.90
29713;DHT22;16623;53.632;10.016;2023-03-11T03:02:06;0.60;99.90
29713;DHT22;16623;53.632;10.016;2023-03-11T03:04:32;0.50;99.90
29713;DHT22;16623;53.632;10.016;2023-03-11T03:06:57;0.60;99.90
29713;DHT22;16623;53.632;10.016;2023-03-11T03:09:23;0.50;99.90
29713;DHT22;16623;53.632;10.016;2023-03-11T03:11:48;0.50;99.90
29713;DHT22;16623;53.632;10.016;2023-03-11T03:14:14;-1.20;99.90
29713;DHT22;16623;53.632;10.016;2023-03-11T03:16:39;0.50;99.90
29713;DHT22;16623;53.632;10.016;2023-03-11T03:19:04;0.60;99.90
29713;DHT22;16623;53.632;10.016;2023-03-11T03:21:30;0.60;99.90
29713;DHT22;16623;53.632;10.016;2023-03-11T03:23:55;0.60;99.90
29713;DHT22;16623;53.632;10.016;2023-03-11T03:26:21;0.60;99.90
29713;DHT22;16623;53.632;10.016;2023-03-11T03:28:47;-0.10;99.90
29713;DHT22;16623;53.632;10.016;2023-03-11T03:31:12;0.50;99.90
29713;DHT22;16623;53.632;10.016;2023-03-11T03:33:38;0.50;99.90
29713;DHT22;16623;53.632;10.016;2023-03-11T03:36:13;0.50;99.90
29713;DHT22;16623;53.632;10.016;2023-03-11T03:38:38;0.50;99.90
29713;DHT22;16623;53.632;10.016;2023-03-11T03:41:04;0.50;99.90
29713;DHT22;16623;53.632;10.016;2023-03-11T03:43:29;0.50;99.90
29713;DHT22;16623;53.632;10.016;2023-03-11T03:46:00;0.50;99.90
29713;DHT22;16623;53.632;10.016;2023-03-11T03:48:27;0.60;99.90
29713;DHT22;16623;53.632;10.016;2023-03-11T03:50:53;0.50;99.90
29713;DHT22;16623;53.632;10.016;2023-03-11T03:53:18;0.40;99.90
29713;DHT22;16623;53.632;10.016;2023-03-11T03:55:44;0.50;99.90
29713;DHT22;16623;53.632;10.016;2023-03-11T03:58:10;0.50;99.90
29713;DHT22;16623;53.632;10.016;2023-03-11T04:00:35;0.50;99.90
29713;DHT22;16623;53.632;10.016;2023-03-11T04:03:02;0.50;99.90
29713;DHT22;16623;53.632;10.016;2023-03-11T04:05:27;0.40;99.90
29713;DHT22;16623;53.632;10.016;2023-03-11T04:07:53;0.50;99.90
29713;DHT22;16623;53.632;10.016;2023-03-11T04:10:19;0.60;99.90
29713;DHT22;16623;53.632;10.016;2023-03-11T04:12:44;-0.50;99.90
29713;DHT22;16623;53.632;10.016;2023-03-11T04:15:10;0.60;99.90
29713;DHT22;16623;53.632;10.016;2023-03-11T04:17:36;0.50;99.90
29713;DHT22;16623;53.632;10.016;2023-03-11T04:20:02;0.50;99.90
29713;DHT22;16623;53.632;10.016;2023-03-11T04:22:28;0.60;99.90
29713;DHT22;16623;53.632;10.016;2023-03-11T04:24:54;0.60;99.90
29713;DHT22;16623;53.632;10.016;2023-03-11T04:27:19;0.50;99.90
29713;DHT22;16623;53.632;10.016;2023-03-11T04:29:45;0.50;99.90
29713;DHT22;16623;53.632;10.016;2023-03-11T04:32:10;0.50;99.90
29713;DHT22;16623;53.632;10.016;2023-03-11T04:34:35;0.60;99.90
29713;DHT22;16623;53.632;10.016;2023-03-11T04:37:01;0.50;99.90
29713;DHT22;16623;53.632;10.016;2023-03-11T04:39:27;0.50;99.90
29713;DHT22;16623;53.632;10.016;2023-03-11T04:41:52;0.40;99.90
29713;DHT22;16623;53.632;10.016;2023-03-11T04:44:18;0.30;99.90
29713;DHT22;16623;53.632;10.016;2023-03-11T04:46:43;0.40;99.90
29713;DHT22;16623;53.632;10.016;2023-03-11T04:49:09;0.30;99.90
29713;DHT22;16623;53.632;10.016;2023-03-11T04:51:34;0.30;99.90
29713;DHT22;16623;53.632;10.016;2023-03-11T04:54:00;0.30;99.90
29713;DHT22;16623;53.632;10.016;2023-03-11T04:56:25;0.40;99.90
29713;DHT22;16623;53.632;10.016;2023-03-11T04:58:51;0.40;99.90
29713;DHT22;16623;53.632;10.016;2023-03-11T05:01:16;0.40;99.90
29713;DHT22;16623;53.632;10.016;2023-03-11T05:03:42;0.40;99.90
29713;DHT22;16623;53.632;10.016;2023-03-11T05:06:07;0.30;99.90
29713;DHT22;16623;53.632;10.016;2023-03-11T05:08:33;0.70;99.90
29713;DHT22;16623;53.632;10.016;2023-03-11T05:10:58;0.20;99.90
29713;DHT22;16623;53.632;10.016;2023-03-11T05:13:24;0.20;99.90
29713;DHT22;16623;53.632;10.016;2023-03-11T05:15:49;0.10;99.90
29713;DHT22;16623;53.632;10.016;2023-03-11T05:18:15;0.10;99.90
29713;DHT22;16623;53.632;10.016;2023-03-11T05:20:41;0.10;99.90
29713;DHT22;16623;53.632;10.016;2023-03-11T05:23:07;0.10;99.90
29713;DHT22;16623;53.632;10.016;2023-03-11T05:25:32;0.10;99.90
29713;DHT22;16623;53.632;10.016;2023-03-11T05:27:57;0.10;99.90
29713;DHT22;16623;53.632;10.016;2023-03-11T05:30:23;0.00;99.90
29713;DHT22;16623;53.632;10.016;2023-03-11T05:32:48;0.10;99.90
29713;DHT22;16623;53.632;10.016;2023-03-11T05:35:14;0.00;99.90
29713;DHT22;16623;53.632;10.016;2023-03-11T05:37:40;-0.10;99.90
29713;DHT22;16623;53.632;10.016;2023-03-11T05:40:06;-0.10;99.90
29713;DHT22;16623;53.632;10.016;2023-03-11T05:42:33;-0.10;99.90
29713;DHT22;16623;53.632;10.016;2023-03-11T05:44:59;-0.10;99.90
29713;DHT22;16623;53.632;10.016;2023-03-11T05:47:24;-0.20;99.90
29713;DHT22;16623;53.632;10.016;2023-03-11T05:49:50;-0.30;99.90
29713;DHT22;16623;53.632;10.016;2023-03-11T05:52:15;-0.20;99.90
29713;DHT22;16623;53.632;10.016;2023-03-11T05:54:41;-0.30;99.90
29713;DHT22;16623;53.632;10.016;2023-03-11T05:57:07;-0.30;99.90
29713;DHT22;16623;53.632;10.016;2023-03-11T05:59:32;-0.40;99.90
29713;DHT22;16623;53.632;10.016;2023-03-11T06:02:01;-0.50;99.90
29713;DHT22;16623;53.632;10.016;2023-03-11T06:04:27;-0.60;99.90
29713;DHT22;16623;53.632;10.016;2023-03-11T06:06:53;-0.60;99.90
29713;DHT22;16623;53.632;10.016;2023-03-11T06:09:18;-0.60;99.90
29713;DHT22;16623;53.632;10.016;2023-03-11T06:11:44;-0.60;99.90
29713;DHT22;16623;53.632;10.016;2023-03-11T06:14:11;-0.60;99.90
29713;DHT22;16623;53.632;10.016;2023-03-11T06:16:38;-0.60;99.90
29713;DHT22;16623;53.632;10.016;2023-03-11T06:19:04;-0.80;99.90
29713;DHT22;16623;53.632;10.016;2023-03-11T06:21:30;-0.70;99.90
29713;DHT22;16623;53.632;10.016;2023-03-11T06:23:55;-0.60;99.90
29713;DHT22;16623;53.632;10.016;2023-03-11T06:26:22;-0.60;99.90
29713;DHT22;16623;53.632;10.016;2023-03-11T06:28:49;-0.60;99.90
29713;DHT22;16623;53.632;10.016;2023-03-11T06:31:20;-0.50;99.90
29713;DHT22;16623;53.632;10.016;2023-03-11T06:33:46;-0.60;99.90
29713;DHT22;16623;53.632;10.016;2023-03-11T06:36:13;-0.50;99.90
29713;DHT22;16623;53.632;10.016;2023-03-11T06:38:39;-0.70;99.90
29713;DHT22;16623;53.632;10.016;2023-03-11T06:41:06;-0.40;99.90
29713;DHT22;16623;53.632;10.016;2023-03-11T06:43:33;-0.40;99.90
29713;DHT22;16623;53.632;10.016;2023-03-11T06:45:59;-0.40;99.90
29713;DHT22;16623;53.632;10.016;2023-03-11T06:48:25;-0.20;99.90
29713;DHT22;16623;53.632;10.016;2023-03-11T06:50:58;-0.30;99.90
29713;DHT22;16623;53.632;10.016;2023-03-11T06:53:24;-0.30;99.90
29713;DHT22;16623;53.632;10.016;2023-03-11T06:56:07;-0.30;99.90
29713;DHT22;16623;53.632;10.016;2023-03-11T06:58:34;-0.10;99.90
29713;DHT22;16623;53.632;10.016;2023-03-11T07:01:09;-0.10;99.90
29713;DHT22;16623;53.632;10.016;2023-03-11T07:03:35;0.00;99.90
29713;DHT22;16623;53.632;10.016;2023-03-11T07:06:01;0.10;99.90
29713;DHT22;16623;53.632;10.016;2023-03-11T07:08:26;0.00;99.90
29713;DHT22;16623;53.632;10.016;2023-03-11T07:11:19;0.20;99.90
29713;DHT22;16623;53.632;10.016;2023-03-11T07:13:45;0.30;99.90
29713;DHT22;16623;53.632;10.016;2023-03-11T07:16:17;0.30;99.90
29713;DHT22;16623;53.632;10.016;2023-03-11T07:18:44;0.40;99.90
29713;DHT22;16623;53.632;10.016;2023-03-11T07:21:12;0.40;99.90
29713;DHT22;16623;53.632;10.016;2023-03-11T07:23:39;0.50;99.90
29713;DHT22;16623;53.632;10.016;2023-03-11T07:26:05;0.60;99.90
29713;DHT22;16623;53.632;10.016;2023-03-11T07:28:32;0.70;99.90
29713;DHT22;16623;53.632;10.016;2023-03-11T07:30:57;0.60;99.90
29713;DHT22;16623;53.632;10.016;2023-03-11T07:33:23;0.80;99.90
29713;DHT22;16623;53.632;10.016;2023-03-11T07:35:49;0.90;99.90
29713;DHT22;16623;53.632;10.016;2023-03-11T07:38:16;1.00;99.90
29713;DHT22;16623;53.632;10.016;2023-03-11T07:40:42;1.00;99.90
29713;DHT22;16623;53.632;10.016;2023-03-11T07:43:09;1.20;99.90
29713;DHT22;16623;53.632;10.016;2023-03-11T07:45:34;1.40;99.90
29713;DHT22;16623;53.632;10.016;2023-03-11T07:48:00;1.50;99.90
29713;DHT22;16623;53.632;10.016;2023-03-11T07:50:25;1.70;99.90
29713;DHT22;16623;53.632;10.016;2023-03-11T07:52:51;1.80;99.90
29713;DHT22;16623;53.632;10.016;2023-03-11T07:55:16;1.90;99.90
29713;DHT22;16623;53.632;10.016;2023-03-11T07:57:42;2.00;99.90
29713;DHT22;16623;53.632;10.016;2023-03-11T08:00:09;1.90;99.90
29713;DHT22;16623;53.632;10.016;2023-03-11T08:02:35;2.00;99.90
29713;DHT22;16623;53.632;10.016;2023-03-11T08:05:00;1.90;99.90
29713;DHT22;16623;53.632;10.016;2023-03-11T08:07:26;2.10;99.90
29713;DHT22;16623;53.632;10.016;2023-03-11T08:09:51;2.10;99.90
29713;DHT22;16623;53.632;10.016;2023-03-11T08:12:17;2.20;99.90
29713;DHT22;16623;53.632;10.016;2023-03-11T08:14:42;2.30;99.90
29713;DHT22;16623;53.632;10.016;2023-03-11T08:17:08;2.30;99.90
29713;DHT22;16623;53.632;10.016;2023-03-11T08:19:34;2.30;99.90
29713;DHT22;16623;53.632;10.016;2023-03-11T08:22:01;2.30;99.90
29713;DHT22;16623;53.632;10.016;2023-03-11T08:24:27;2.30;99.90
29713;DHT22;16623;53.632;10.016;2023-03-11T08:26:53;2.40;99.90
29713;DHT22;16623;53.632;10.016;2023-03-11T08:29:20;2.50;99.90
29713;DHT22;16623;53.632;10.016;2023-03-11T08:31:45;2.50;99.90
29713;DHT22;16623;53.632;10.016;2023-03-11T08:34:11;2.60;99.90
29713;DHT22;16623;53.632;10.016;2023-03-11T08:36:37;2.50;99.90
29713;DHT22;16623;53.632;10.016;2023-03-11T08:39:03;2.50;99.90
29713;DHT22;16623;53.632;10.016;2023-03-11T08:41:29;2.40;99.90
29713;DHT22;16623;53.632;10.016;2023-03-11T08:43:55;2.40;99.90
29713;DHT22;16623;53.632;10.016;2023-03-11T08:46:47;2.40;99.90
29713;DHT22;16623;53.632;10.016;2023-03-11T08:49:12;2.50;99.90
29713;DHT22;16623;53.632;10.016;2023-03-11T08:51:38;2.50;99.90
29713;DHT22;16623;53.632;10.016;2023-03-11T08:54:03;2.50;99.90
29713;DHT22;16623;53.632;10.016;2023-03-11T08:56:29;2.50;99.90
29713;DHT22;16623;53.632;10.016;2023-03-11T08:58:55;2.50;99.90
29713;DHT22;16623;53.632;10.016;2023-03-11T09:01:21;2.60;99.90
29713;DHT22;16623;53.632;10.016;2023-03-11T09:03:48;2.60;99.90
29713;DHT22;16623;53.632;10.016;2023-03-11T09:06:15;2.60;99.90
29713;DHT22;16623;53.632;10.016;2023-03-11T09:08:41;2.60;99.90
29713;DHT22;16623;53.632;10.016;2023-03-11T09:11:07;2.60;99.90
29713;DHT22;16623;53.632;10.016;2023-03-11T09:13:33;2.60;99.90
29713;DHT22;16623;53.632;10.016;2023-03-11T09:15:59;2.70;99.90
29713;DHT22;16623;53.632;10.016;2023-03-11T09:18:24;2.70;99.90
29713;DHT22;16623;53.632;10.016;2023-03-11T09:20:50;2.70;99.90
29713;DHT22;16623;53.632;10.016;2023-03-11T09:23:16;2.80;99.90
29713;DHT22;16623;53.632;10.016;2023-03-11T09:25:42;1.30;99.90
29713;DHT22;16623;53.632;10.016;2023-03-11T09:28:08;2.90;99.90
29713;DHT22;16623;53.632;10.016;2023-03-11T09:30:33;2.80;99.90
29713;DHT22;16623;53.632;10.016;2023-03-11T09:32:59;2.80;99.90
29713;DHT22;16623;53.632;10.016;2023-03-11T09:35:25;2.90;99.90
29713;DHT22;16623;53.632;10.016;2023-03-11T09:37:51;3.00;99.90
29713;DHT22;16623;53.632;10.016;2023-03-11T09:40:21;3.10;99.90
29713;DHT22;16623;53.632;10.016;2023-03-11T09:43:10;3.30;99.90
29713;DHT22;16623;53.632;10.016;2023-03-11T09:45:48;3.40;99.90
29713;DHT22;16623;53.632;10.016;2023-03-11T09:48:36;3.50;99.90
29713;DHT22;16623;53.632;10.016;2023-03-11T09:51:18;3.50;99.90
29713;DHT22;16623;53.632;10.016;2023-03-11T09:53:45;3.50;99.90
29713;DHT22;16623;53.632;10.016;2023-03-11T09:56:14;3.60;99.90
29713;DHT22;16623;53.632;10.016;2023-03-11T09:58:59;3.90;99.90
29713;DHT22;16623;53.632;10.016;2023-03-11T10:01:32;4.00;99.90
29713;DHT22;16623;53.632;10.016;2023-03-11T10:04:12;3.90;99.90
29713;DHT22;16623;53.632;10.016;2023-03-11T10:06:39;4.00;99.90
29713;DHT22;16623;53.632;10.016;2023-03-11T10:12:20;4.00;99.90
29713;DHT22;16623;53.632;10.016;2023-03-11T10:15:11;4.00;99.90
29713;DHT22;16623;53.632;10.016;2023-03-11T10:21:07;4.20;99.90
29713;DHT22;16623;53.632;10.016;2023-03-11T10:24:00;4.50;99.90
29713;DHT22;16623;53.632;10.016;2023-03-11T10:26:38;4.70;99.90
29713;DHT22;16623;53.632;10.016;2023-03-11T10:34:56;5.00;99.90
29713;DHT22;16623;53.632;10.016;2023-03-11T10:37:25;5.20;99.90
29713;DHT22;16623;53.632;10.016;2023-03-11T10:39:52;5.20;99.90
29713;DHT22;16623;53.632;10.016;2023-03-11T10:42:21;5.70;99.90
29713;DHT22;16623;53.632;10.016;2023-03-11T10:44:48;6.10;99.90
29713;DHT22;16623;53.632;10.016;2023-03-11T10:47:22;6.40;99.90
29713;DHT22;16623;53.632;10.016;2023-03-11T10:49:49;6.60;99.90
29713;DHT22;16623;53.632;10.016;2023-03-11T10:52:15;6.90;99.90
29713;DHT22;16623;53.632;10.016;2023-03-11T10:54:44;6.90;99.90
29713;DHT22;16623;53.632;10.016;2023-03-11T10:57:26;7.10;99.90
29713;DHT22;16623;53.632;10.016;2023-03-11T10:59:54;6.90;99.90
29713;DHT22;16623;53.632;10.016;2023-03-11T11:07:39;5.90;99.90
29713;DHT22;16623;53.632;10.016;2023-03-11T11:15:27;5.40;99.90
29713;DHT22;16623;53.632;10.016;2023-03-11T11:17:56;5.20;99.90
29713;DHT22;16623;53.632;10.016;2023-03-11T11:20:22;5.00;99.90
29713;DHT22;16623;53.632;10.016;2023-03-11T11:22:55;5.10;99.90
29713;DHT22;16623;53.632;10.016;2023-03-11T11:25:26;4.50;99.90
29713;DHT22;16623;53.632;10.016;2023-03-11T11:27:54;5.00;99.90
29713;DHT22;16623;53.632;10.016;2023-03-11T11:30:20;5.00;99.90
29713;DHT22;16623;53.632;10.016;2023-03-11T11:32:46;5.10;99.90
29713;DHT22;16623;53.632;10.016;2023-03-11T11:35:16;5.10;99.90
29713;DHT22;16623;53.632;10.016;2023-03-11T11:37:49;5.00;99.90
29713;DHT22;16623;53.632;10.016;2023-03-11T11:40:20;4.90;99.90
29713;DHT22;16623;53.632;10.016;2023-03-11T11:43:13;5.00;99.90
29713;DHT22;16623;53.632;10.016;2023-03-11T11:45:44;4.90;99.90
29713;DHT22;16623;53.632;10.016;2023-03-11T11:48:17;4.90;99.90
29713;DHT22;16623;53.632;10.016;2023-03-11T11:50:52;5.00;99.90
29713;DHT22;16623;53.632;10.016;2023-03-11T11:53:30;5.10;99.90
29713;DHT22;16623;53.632;10.016;2023-03-11T11:55:57;5.30;99.90
29713;DHT22;16623;53.632;10.016;2023-03-11T11:58:23;5.10;99.90
29713;DHT22;16623;53.632;10.016;2023-03-11T12:01:06;5.00;99.90
29713;DHT22;16623;53.632;10.016;2023-03-11T12:12:12;5.60;99.90
29713;DHT22;16623;53.632;10.016;2023-03-11T12:17:24;5.60;99.90
29713;DHT22;16623;53.632;10.016;2023-03-11T12:20:21;5.60;99.90
29713;DHT22;16623;53.632;10.016;2023-03-11T12:26:17;5.60;99.90
29713;DHT22;16623;53.632;10.016;2023-03-11T12:28:53;5.70;99.90
29713;DHT22;16623;53.632;10.016;2023-03-11T12:31:22;5.80;99.90
29713;DHT22;16623;53.632;10.016;2023-03-11T12:34:02;5.80;99.90
29713;DHT22;16623;53.632;10.016;2023-03-11T12:36:30;5.90;99.90
29713;DHT22;16623;53.632;10.016;2023-03-11T12:38:59;5.90;99.90
29713;DHT22;16623;53.632;10.016;2023-03-11T12:41:35;6.00;99.90
29713;DHT22;16623;53.632;10.016;2023-03-11T12:49:27;6.30;99.90
29713;DHT22;16623;53.632;10.016;2023-03-11T12:52:01;6.30;99.90
29713;DHT22;16623;53.632;10.016;2023-03-11T12:54:32;6.30;99.90
29713;DHT22;16623;53.632;10.016;2023-03-11T13:02:55;6.20;99.90
29713;DHT22;16623;53.632;10.016;2023-03-11T13:08:54;6.00;99.90
29713;DHT22;16623;53.632;10.016;2023-03-11T13:16:47;6.20;99.90
29713;DHT22;16623;53.632;10.016;2023-03-11T13:21:56;6.60;99.90
29713;DHT22;16623;53.632;10.016;2023-03-11T13:27:01;6.90;99.90
29713;DHT22;16623;53.632;10.016;2023-03-11T13:29:55;7.00;99.90
29713;DHT22;16623;53.632;10.016;2023-03-11T13:32:50;7.00;99.90
29713;DHT22;16623;53.632;10.016;2023-03-11T13:38:52;6.90;99.90
29713;DHT22;16623;53.632;10.016;2023-03-11T13:41:29;6.80;99.90
29713;DHT22;16623;53.632;10.016;2023-03-11T13:44:08;6.90;99.90
29713;DHT22;16623;53.632;10.016;2023-03-11T13:46:41;7.00;99.90
29713;DHT22;16623;53.632;10.016;2023-03-11T13:49:38;7.10;99.90
29713;DHT22;16623;53.632;10.016;2023-03-11T13:52:08;7.10;99.90
29713;DHT22;16623;53.632;10.016;2023-03-11T13:55:02;7.10;99.90
29713;DHT22;16623;53.632;10.016;2023-03-11T13:57:33;7.00;99.90
29713;DHT22;16623;53.632;10.016;2023-03-11T14:00:20;7.00;99.90
29713;DHT22;16623;53.632;10.016;2023-03-11T14:02:52;6.80;99.90
29713;DHT22;16623;53.632;10.016;2023-03-11T14:05:32;6.80;99.90
29713;DHT22;16623;53.632;10.016;2023-03-11T14:08:21;6.70;99.90
29713;DHT22;16623;53.632;10.016;2023-03-11T14:13:29;6.70;99.90
29713;DHT22;16623;53.632;10.016;2023-03-11T14:18:46;6.60;99.90
29713;DHT22;16623;53.632;10.016;2023-03-11T14:21:15;6.50;99.90
29713;DHT22;16623;53.632;10.016;2023-03-11T14:23:44;6.40;99.90
29713;DHT22;16623;53.632;10.016;2023-03-11T14:26:28;6.10;99.90
29713;DHT22;16623;53.632;10.016;2023-03-11T14:28:59;6.00;99.90
29713;DHT22;16623;53.632;10.016;2023-03-11T14:31:36;6.00;99.90
29713;DHT22;16623;53.632;10.016;2023-03-11T14:34:12;6.10;99.90
29713;DHT22;16623;53.632;10.016;2023-03-11T14:36:52;6.30;99.90
29713;DHT22;16623;53.632;10.016;2023-03-11T14:39:32;6.40;99.90
29713;DHT22;16623;53.632;10.016;2023-03-11T14:42:05;6.60;99.90
29713;DHT22;16623;53.632;10.016;2023-03-11T14:44:36;6.60;99.90
29713;DHT22;16623;53.632;10.016;2023-03-11T14:49:36;6.60;99.90
29713;DHT22;16623;53.632;10.016;2023-03-11T14:52:07;6.60;99.90
29713;DHT22;16623;53.632;10.016;2023-03-11T14:54:35;6.50;99.90
29713;DHT22;16623;53.632;10.016;2023-03-11T14:57:03;6.50;99.90
29713;DHT22;16623;53.632;10.016;2023-03-11T14:59:30;6.40;99.90
29713;DHT22;16623;53.632;10.016;2023-03-11T15:02:17;6.20;99.90
29713;DHT22;16623;53.632;10.016;2023-03-11T15:04:51;6.20;99.90
29713;DHT22;16623;53.632;10.016;2023-03-11T15:07:18;6.00;99.90
29713;DHT22;16623;53.632;10.016;2023-03-11T15:09:44;6.00;99.90
29713;DHT22;16623;53.632;10.016;2023-03-11T15:12:48;6.00;99.90
29713;DHT22;16623;53.632;10.016;2023-03-11T15:15:25;6.00;99.90
29713;DHT22;16623;53.632;10.016;2023-03-11T15:17:54;5.90;99.90
29713;DHT22;16623;53.632;10.016;2023-03-11T15:20:36;5.90;99.90
29713;DHT22;16623;53.632;10.016;2023-03-11T15:23:04;5.90;99.90
29713;DHT22;16623;53.632;10.016;2023-03-11T15:25:32;5.90;99.90
29713;DHT22;16623;53.632;10.016;2023-03-11T15:28:12;5.90;99.90
29713;DHT22;16623;53.632;10.016;2023-03-11T15:30:39;5.90;99.90
29713;DHT22;16623;53.632;10.016;2023-03-11T15:33:22;5.90;99.90
29713;DHT22;16623;53.632;10.016;2023-03-11T15:35:48;5.90;99.90
29713;DHT22;16623;53.632;10.016;2023-03-11T15:38:24;5.90;99.90
29713;DHT22;16623;53.632;10.016;2023-03-11T15:41:00;5.80;99.90
29713;DHT22;16623;53.632;10.016;2023-03-11T15:43:31;5.80;99.90
29713;DHT22;16623;53.632;10.016;2023-03-11T15:45:59;5.80;99.90
29713;DHT22;16623;53.632;10.016;2023-03-11T15:48:26;5.70;99.90
29713;DHT22;16623;53.632;10.016;2023-03-11T15:50:55;5.70;99.90
29713;DHT22;16623;53.632;10.016;2023-03-11T15:53:22;5.40;99.90
29713;DHT22;16623;53.632;10.016;2023-03-11T15:55:49;4.90;99.90
29713;DHT22;16623;53.632;10.016;2023-03-11T15:58:16;4.60;99.90
29713;DHT22;16623;53.632;10.016;2023-03-11T16:00:46;4.20;99.90
29713;DHT22;16623;53.632;10.016;2023-03-11T16:03:12;3.80;99.90
29713;DHT22;16623;53.632;10.016;2023-03-11T16:05:38;3.60;99.90
29713;DHT22;16623;53.632;10.016;2023-03-11T16:08:04;3.40;99.90
29713;DHT22;16623;53.632;10.016;2023-03-11T16:10:29;3.30;99.90
29713;DHT22;16623;53.632;10.016;2023-03-11T16:12:55;3.40;99.90
29713;DHT22;16623;53.632;10.016;2023-03-11T16:15:27;3.40;99.90
29713;DHT22;16623;53.632;10.016;2023-03-11T16:17:58;3.30;99.90
29713;DHT22;16623;53.632;10.016;2023-03-11T16:20:25;3.40;99.90
29713;DHT22;16623;53.632;10.016;2023-03-11T16:22:55;3.40;99.90
29713;DHT22;16623;53.632;10.016;2023-03-11T16:25:27;2.90;99.90
29713;DHT22;16623;53.632;10.016;2023-03-11T16:27:55;3.50;99.90
29713;DHT22;16623;53.632;10.016;2023-03-11T16:30:21;3.40;99.90
29713;DHT22;16623;53.632;10.016;2023-03-11T16:32:47;3.40;99.90
29713;DHT22;16623;53.632;10.016;2023-03-11T16:35:13;3.30;99.90
29713;DHT22;16623;53.632;10.016;2023-03-11T16:37:39;3.30;99.90
29713;DHT22;16623;53.632;10.016;2023-03-11T16:40:09;3.40;99.90
29713;DHT22;16623;53.632;10.016;2023-03-11T16:42:36;3.30;99.90
29713;DHT22;16623;53.632;10.016;2023-03-11T16:45:01;3.20;99.90
29713;DHT22;16623;53.632;10.016;2023-03-11T16:47:27;3.20;99.90
29713;DHT22;16623;53.632;10.016;2023-03-11T16:49:52;3.30;99.90
29713;DHT22;16623;53.632;10.016;2023-03-11T16:52:19;3.20;99.90
29713;DHT22;16623;53.632;10.016;2023-03-11T16:54:46;3.20;99.90
29713;DHT22;16623;53.632;10.016;2023-03-11T16:57:11;3.30;99.90
29713;DHT22;16623;53.632;10.016;2023-03-11T16:59:37;3.40;99.90